sensor_id;sensor_type;location;lat;lon;timestamp;temperature;humidity
40434;DHT22;26146;51.114;5.654;2023-04-02T00:03:05;8.40;99.90
40434;DHT22;26146;51.114;5.654;2023-04-02T00:07:27;8.20;99.90
40434;DHT22;26146;51.114;5.654;2023-04-02T00:11:35;8.20;99.90
40434;DHT22;26146;51.114;5.654;2023-04-02T00:15:39;8.10;99.90
40434;DHT22;26146;51.114;5.654;2023-04-02T00:19:48;8.10;99.90
40434;DHT22;26146;51.114;5.654;2023-04-02T00:23:53;8.10;99.90
40434;DHT22;26146;51.114;5.654;2023-04-02T00:27:55;8.20;99.90
40434;DHT22;26146;51.114;5.654;2023-04-02T00:31:58;8.00;99.90
40434;DHT22;26146;51.114;5.654;2023-04-02T00:35:59;7.90;99.90
40434;DHT22;26146;51.114;5.654;2023-04-02T00:40:29;7.90;99.90
40434;DHT22;26146;51.114;5.654;2023-04-02T00:44:36;7.90;99.90
40434;DHT22;26146;51.114;5.654;2023-04-02T00:48:57;7.80;99.90
40434;DHT22;26146;51.114;5.654;2023-04-02T00:53:05;7.80;99.90
40434;DHT22;26146;51.114;5.654;2023-04-02T00:57:15;7.80;99.90
40434;DHT22;26146;51.114;5.654;2023-04-02T01:01:20;7.80;99.90
40434;DHT22;26146;51.114;5.654;2023-04-02T01:05:22;7.90;99.90
40434;DHT22;26146;51.114;5.654;2023-04-02T01:09:27;8.00;99.90
40434;DHT22;26146;51.114;5.654;2023-04-02T01:14:00;8.00;99.90
40434;DHT22;26146;51.114;5.654;2023-04-02T01:27:28;8.00;99.90
40434;DHT22;26146;51.114;5.654;2023-04-02T01:31:32;8.00;99.90
40434;DHT22;26146;51.114;5.654;2023-04-02T01:35:37;7.90;99.90
40434;DHT22;26146;51.114;5.654;2023-04-02T01:44:02;7.80;99.90
40434;DHT22;26146;51.114;5.654;2023-04-02T01:48:17;7.70;99.90
40434;DHT22;26146;51.114;5.654;2023-04-02T01:52:33;7.80;99.90
40434;DHT22;26146;51.114;5.654;2023-04-02T01:56:35;7.70;99.90
40434;DHT22;26146;51.114;5.654;2023-04-02T02:00:42;7.70;99.90
40434;DHT22;26146;51.114;5.654;2023-04-02T02:04:45;7.60;99.90
40434;DHT22;26146;51.114;5.654;2023-04-02T02:08:57;7.60;99.90
40434;DHT22;26146;51.114;5.654;2023-04-02T02:12:59;7.50;99.90
40434;DHT22;26146;51.114;5.654;2023-04-02T02:17:01;7.30;99.90
40434;DHT22;26146;51.114;5.654;2023-04-02T02:21:04;7.40;99.90
40434;DHT22;26146;51.114;5.654;2023-04-02T02:25:20;7.40;99.90
40434;DHT22;26146;51.114;5.654;2023-04-02T02:29:25;7.30;99.90
40434;DHT22;26146;51.114;5.654;2023-04-02T02:33:41;7.40;99.90
40434;DHT22;26146;51.114;5.654;2023-04-02T02:37:54;7.40;99.90
40434;DHT22;26146;51.114;5.654;2023-04-02T02:46:00;7.20;99.90
40434;DHT22;26146;51.114;5.654;2023-04-02T02:50:07;7.20;99.90
40434;DHT22;26146;51.114;5.654;2023-04-02T02:54:14;7.10;99.90
40434;DHT22;26146;51.114;5.654;2023-04-02T02:58:19;7.20;99.90
40434;DHT22;26146;51.114;5.654;2023-04-02T03:02:26;7.20;99.90
40434;DHT22;26146;51.114;5.654;2023-04-02T03:06:28;7.20;99.90
40434;DHT22;26146;51.114;5.654;2023-04-02T03:14:48;7.20;99.90
40434;DHT22;26146;51.114;5.654;2023-04-02T03:23:21;7.20;99.90
40434;DHT22;26146;51.114;5.654;2023-04-02T03:27:39;7.00;99.90
40434;DHT22;26146;51.114;5.654;2023-04-02T03:31:45;7.00;99.90
40434;DHT22;26146;51.114;5.654;2023-04-02T03:36:12;6.90;99.90
40434;DHT22;26146;51.114;5.654;2023-04-02T03:45:13;6.80;99.90
40434;DHT22;26146;51.114;5.654;2023-04-02T03:49:33;6.80;99.90
40434;DHT22;26146;51.114;5.654;2023-04-02T03:53:36;6.90;99.90
40434;DHT22;26146;51.114;5.654;2023-04-02T04:01:59;6.90;99.90
40434;DHT22;26146;51.114;5.654;2023-04-02T04:06:28;7.00;99.90
40434;DHT22;26146;51.114;5.654;2023-04-02T04:10:29;6.90;99.90
40434;DHT22;26146;51.114;5.654;2023-04-02T04:14:39;6.90;99.90
40434;DHT22;26146;51.114;5.654;2023-04-02T04:23:21;6.90;99.90
40434;DHT22;26146;51.114;5.654;2023-04-02T04:32:19;6.80;99.90
40434;DHT22;26146;51.114;5.654;2023-04-02T04:36:30;6.80;99.90
40434;DHT22;26146;51.114;5.654;2023-04-02T04:40:40;6.70;99.90
40434;DHT22;26146;51.114;5.654;2023-04-02T04:45:05;6.80;99.90
40434;DHT22;26146;51.114;5.654;2023-04-02T04:49:26;6.70;99.90
40434;DHT22;26146;51.114;5.654;2023-04-02T04:53:30;6.70;99.90
40434;DHT22;26146;51.114;5.654;2023-04-02T04:57:36;6.80;99.90
40434;DHT22;26146;51.114;5.654;2023-04-02T05:02:05;6.90;99.90
40434;DHT22;26146;51.114;5.654;2023-04-02T05:10:47;6.80;99.90
40434;DHT22;26146;51.114;5.654;2023-04-02T05:19:16;6.60;99.90
40434;DHT22;26146;51.114;5.654;2023-04-02T05:23:28;6.60;99.90
40434;DHT22;26146;51.114;5.654;2023-04-02T05:31:59;6.60;99.90
40434;DHT22;26146;51.114;5.654;2023-04-02T05:40:20;6.50;99.90
40434;DHT22;26146;51.114;5.654;2023-04-02T05:44:31;6.30;99.90
40434;DHT22;26146;51.114;5.654;2023-04-02T05:48:37;6.20;99.90
40434;DHT22;26146;51.114;5.654;2023-04-02T05:52:47;6.10;99.90
40434;DHT22;26146;51.114;5.654;2023-04-02T05:56:55;6.20;99.90
40434;DHT22;26146;51.114;5.654;2023-04-02T06:09:06;6.30;99.90
40434;DHT22;26146;51.114;5.654;2023-04-02T06:13:12;6.20;99.90
40434;DHT22;26146;51.114;5.654;2023-04-02T06:17:17;6.10;99.90
40434;DHT22;26146;51.114;5.654;2023-04-02T06:21:20;5.90;99.90
40434;DHT22;26146;51.114;5.654;2023-04-02T06:25:35;6.00;99.90
40434;DHT22;26146;51.114;5.654;2023-04-02T06:29:41;5.90;99.90
40434;DHT22;26146;51.114;5.654;2023-04-02T06:33:43;5.90;99.90
40434;DHT22;26146;51.114;5.654;2023-04-02T06:37:50;5.90;99.90
40434;DHT22;26146;51.114;5.654;2023-04-02T06:46:17;5.90;99.90
40434;DHT22;26146;51.114;5.654;2023-04-02T06:50:34;5.90;99.90
40434;DHT22;26146;51.114;5.654;2023-04-02T06:54:36;5.70;99.90
40434;DHT22;26146;51.114;5.654;2023-04-02T06:58:37;5.70;99.90
40434;DHT22;26146;51.114;5.654;2023-04-02T07:02:39;5.70;99.90
40434;DHT22;26146;51.114;5.654;2023-04-02T07:06:40;5.80;99.90
40434;DHT22;26146;51.114;5.654;2023-04-02T07:10:44;5.80;99.90
40434;DHT22;26146;51.114;5.654;2023-04-02T07:14:45;5.90;99.90
40434;DHT22;26146;51.114;5.654;2023-04-02T07:18:47;6.00;99.90
40434;DHT22;26146;51.114;5.654;2023-04-02T07:22:48;6.10;99.90
40434;DHT22;26146;51.114;5.654;2023-04-02T07:26:51;6.10;99.90
40434;DHT22;26146;51.114;5.654;2023-04-02T07:30:52;5.90;99.90
40434;DHT22;26146;51.114;5.654;2023-04-02T07:34:53;5.80;99.90
40434;DHT22;26146;51.114;5.654;2023-04-02T07:38:54;5.90;99.90
40434;DHT22;26146;51.114;5.654;2023-04-02T07:42:55;5.90;99.90
40434;DHT22;26146;51.114;5.654;2023-04-02T07:46:56;6.00;99.90
40434;DHT22;26146;51.114;5.654;2023-04-02T07:50:58;6.20;99.90
40434;DHT22;26146;51.114;5.654;2023-04-02T07:55:00;6.30;99.90
40434;DHT22;26146;51.114;5.654;2023-04-02T07:59:02;6.10;99.90
40434;DHT22;26146;51.114;5.654;2023-04-02T08:03:04;6.00;99.90
40434;DHT22;26146;51.114;5.654;2023-04-02T08:07:05;6.00;99.90
40434;DHT22;26146;51.114;5.654;2023-04-02T08:11:06;5.90;99.90
40434;DHT22;26146;51.114;5.654;2023-04-02T08:15:08;5.80;99.90
40434;DHT22;26146;51.114;5.654;2023-04-02T08:19:09;6.00;99.90
40434;DHT22;26146;51.114;5.654;2023-04-02T08:23:14;6.20;99.90
40434;DHT22;26146;51.114;5.654;2023-04-02T08:27:17;6.00;99.90
40434;DHT22;26146;51.114;5.654;2023-04-02T08:31:20;5.90;99.90
40434;DHT22;26146;51.114;5.654;2023-04-02T08:35:23;6.00;99.90
40434;DHT22;26146;51.114;5.654;2023-04-02T08:39:24;6.10;99.90
40434;DHT22;26146;51.114;5.654;2023-04-02T08:47:41;6.00;99.90
40434;DHT22;26146;51.114;5.654;2023-04-02T08:51:45;6.00;99.90
40434;DHT22;26146;51.114;5.654;2023-04-02T09:00:06;6.10;99.90
40434;DHT22;26146;51.114;5.654;2023-04-02T09:04:16;6.00;99.90
40434;DHT22;26146;51.114;5.654;2023-04-02T09:08:22;6.00;99.90
40434;DHT22;26146;51.114;5.654;2023-04-02T09:12:29;6.10;99.90
40434;DHT22;26146;51.114;5.654;2023-04-02T09:20:34;5.80;99.90
40434;DHT22;26146;51.114;5.654;2023-04-02T09:24:39;5.90;99.90
40434;DHT22;26146;51.114;5.654;2023-04-02T09:28:40;6.10;99.90
40434;DHT22;26146;51.114;5.654;2023-04-02T09:32:55;6.30;99.90
40434;DHT22;26146;51.114;5.654;2023-04-02T09:37:13;6.40;99.90
40434;DHT22;26146;51.114;5.654;2023-04-02T09:41:20;6.40;99.90
40434;DHT22;26146;51.114;5.654;2023-04-02T09:45:25;6.30;99.90
40434;DHT22;26146;51.114;5.654;2023-04-02T09:49:30;6.10;99.90
40434;DHT22;26146;51.114;5.654;2023-04-02T09:53:42;6.20;99.90
40434;DHT22;26146;51.114;5.654;2023-04-02T09:57:46;6.40;99.90
40434;DHT22;26146;51.114;5.654;2023-04-02T10:06:14;6.70;99.90
40434;DHT22;26146;51.114;5.654;2023-04-02T10:10:29;6.80;99.90
40434;DHT22;26146;51.114;5.654;2023-04-02T10:14:40;6.90;99.90
40434;DHT22;26146;51.114;5.654;2023-04-02T10:18:57;6.70;99.90
40434;DHT22;26146;51.114;5.654;2023-04-02T10:22:58;6.80;99.90
40434;DHT22;26146;51.114;5.654;2023-04-02T10:36:08;6.80;99.90
40434;DHT22;26146;51.114;5.654;2023-04-02T10:45:12;6.90;99.90
40434;DHT22;26146;51.114;5.654;2023-04-02T10:49:19;7.00;99.90
40434;DHT22;26146;51.114;5.654;2023-04-02T10:57:39;7.20;99.90
40434;DHT22;26146;51.114;5.654;2023-04-02T11:01:45;7.20;99.90
40434;DHT22;26146;51.114;5.654;2023-04-02T11:05:52;7.10;99.90
40434;DHT22;26146;51.114;5.654;2023-04-02T11:09:55;6.80;99.90
40434;DHT22;26146;51.114;5.654;2023-04-02T11:14:02;6.80;99.90
40434;DHT22;26146;51.114;5.654;2023-04-02T11:18:04;6.90;99.90
40434;DHT22;26146;51.114;5.654;2023-04-02T11:22:22;6.90;99.90
40434;DHT22;26146;51.114;5.654;2023-04-02T11:26:40;7.10;99.90
40434;DHT22;26146;51.114;5.654;2023-04-02T11:30:44;7.20;99.90
40434;DHT22;26146;51.114;5.654;2023-04-02T11:38:49;7.20;99.90
40434;DHT22;26146;51.114;5.654;2023-04-02T11:42:50;7.20;99.90
40434;DHT22;26146;51.114;5.654;2023-04-02T11:47:13;7.10;99.90
40434;DHT22;26146;51.114;5.654;2023-04-02T11:55:40;7.20;99.90
40434;DHT22;26146;51.114;5.654;2023-04-02T12:08:39;7.10;99.90
40434;DHT22;26146;51.114;5.654;2023-04-02T12:12:47;7.30;99.90
40434;DHT22;26146;51.114;5.654;2023-04-02T12:16:49;7.30;99.90
40434;DHT22;26146;51.114;5.654;2023-04-02T12:20:55;7.30;99.90
40434;DHT22;26146;51.114;5.654;2023-04-02T12:29:23;7.40;99.90
40434;DHT22;26146;51.114;5.654;2023-04-02T12:33:28;7.60;99.90
40434;DHT22;26146;51.114;5.654;2023-04-02T12:37:30;7.60;99.90
40434;DHT22;26146;51.114;5.654;2023-04-02T12:41:35;7.50;99.90
40434;DHT22;26146;51.114;5.654;2023-04-02T12:45:36;7.50;99.90
40434;DHT22;26146;51.114;5.654;2023-04-02T12:49:40;7.40;99.90
40434;DHT22;26146;51.114;5.654;2023-04-02T12:53:50;7.40;99.90
40434;DHT22;26146;51.114;5.654;2023-04-02T12:58:01;7.30;99.90
40434;DHT22;26146;51.114;5.654;2023-04-02T13:02:20;7.30;99.90
40434;DHT22;26146;51.114;5.654;2023-04-02T13:06:23;7.10;99.90
40434;DHT22;26146;51.114;5.654;2023-04-02T13:10:25;7.30;99.90
40434;DHT22;26146;51.114;5.654;2023-04-02T13:14:27;7.60;99.90
40434;DHT22;26146;51.114;5.654;2023-04-02T13:18:29;7.90;99.90
40434;DHT22;26146;51.114;5.654;2023-04-02T13:22:34;7.80;99.90
40434;DHT22;26146;51.114;5.654;2023-04-02T13:26:38;7.70;99.90
40434;DHT22;26146;51.114;5.654;2023-04-02T13:30:42;7.60;99.90
40434;DHT22;26146;51.114;5.654;2023-04-02T13:34:43;7.60;99.90
40434;DHT22;26146;51.114;5.654;2023-04-02T13:38:45;7.50;99.90
40434;DHT22;26146;51.114;5.654;2023-04-02T13:42:47;7.60;99.90
40434;DHT22;26146;51.114;5.654;2023-04-02T13:46:49;7.60;99.90
40434;DHT22;26146;51.114;5.654;2023-04-02T13:50:51;7.70;99.90
40434;DHT22;26146;51.114;5.654;2023-04-02T13:54:55;7.80;99.90
40434;DHT22;26146;51.114;5.654;2023-04-02T13:59:01;7.70;99.90
40434;DHT22;26146;51.114;5.654;2023-04-02T14:03:17;7.60;99.90
40434;DHT22;26146;51.114;5.654;2023-04-02T14:28:49;7.90;99.90
40434;DHT22;26146;51.114;5.654;2023-04-02T14:33:08;7.90;99.90
40434;DHT22;26146;51.114;5.654;2023-04-02T14:37:27;8.10;99.90
40434;DHT22;26146;51.114;5.654;2023-04-02T14:42:11;8.30;99.90
40434;DHT22;26146;51.114;5.654;2023-04-02T14:46:13;8.00;99.90
40434;DHT22;26146;51.114;5.654;2023-04-02T14:50:26;8.00;99.90
40434;DHT22;26146;51.114;5.654;2023-04-02T14:58:47;8.10;99.90
40434;DHT22;26146;51.114;5.654;2023-04-02T15:03:15;8.10;99.90
40434;DHT22;26146;51.114;5.654;2023-04-02T15:07:21;8.10;99.90
40434;DHT22;26146;51.114;5.654;2023-04-02T15:11:34;8.20;99.90
40434;DHT22;26146;51.114;5.654;2023-04-02T15:15:53;8.00;99.90
40434;DHT22;26146;51.114;5.654;2023-04-02T15:20:05;8.00;99.90
40434;DHT22;26146;51.114;5.654;2023-04-02T15:36:43;8.20;99.90
40434;DHT22;26146;51.114;5.654;2023-04-02T15:41:09;8.40;99.90
40434;DHT22;26146;51.114;5.654;2023-04-02T15:45:36;8.30;99.90
40434;DHT22;26146;51.114;5.654;2023-04-02T16:02:45;8.40;99.90
40434;DHT22;26146;51.114;5.654;2023-04-02T16:11:04;8.30;99.90
40434;DHT22;26146;51.114;5.654;2023-04-02T16:19:49;8.50;99.90
40434;DHT22;26146;51.114;5.654;2023-04-02T16:23:52;8.40;99.90
40434;DHT22;26146;51.114;5.654;2023-04-02T16:28:23;8.50;99.90
40434;DHT22;26146;51.114;5.654;2023-04-02T16:36:40;8.50;99.90
40434;DHT22;26146;51.114;5.654;2023-04-02T16:40:50;8.50;99.90
40434;DHT22;26146;51.114;5.654;2023-04-02T16:45:14;8.50;99.90
40434;DHT22;26146;51.114;5.654;2023-04-02T16:49:24;8.30;99.90
40434;DHT22;26146;51.114;5.654;2023-04-02T16:58:01;8.20;99.90
40434;DHT22;26146;51.114;5.654;2023-04-02T17:10:29;8.10;99.90
40434;DHT22;26146;51.114;5.654;2023-04-02T17:14:40;8.20;99.90
40434;DHT22;26146;51.114;5.654;2023-04-02T17:18:43;8.30;99.90
40434;DHT22;26146;51.114;5.654;2023-04-02T17:22:46;8.20;99.90
40434;DHT22;26146;51.114;5.654;2023-04-02T17:27:02;8.30;99.90
40434;DHT22;26146;51.114;5.654;2023-04-02T17:31:18;8.50;99.90
40434;DHT22;26146;51.114;5.654;2023-04-02T17:35:32;8.60;99.90
40434;DHT22;26146;51.114;5.654;2023-04-02T17:40:29;8.60;99.90
40434;DHT22;26146;51.114;5.654;2023-04-02T17:48:54;8.80;99.90
40434;DHT22;26146;51.114;5.654;2023-04-02T17:53:32;8.70;99.90
40434;DHT22;26146;51.114;5.654;2023-04-02T18:06:21;8.50;99.90
40434;DHT22;26146;51.114;5.654;2023-04-02T18:10:37;8.10;99.90
40434;DHT22;26146;51.114;5.654;2023-04-02T18:15:01;8.20;99.90
40434;DHT22;26146;51.114;5.654;2023-04-02T18:36:30;8.10;99.90
40434;DHT22;26146;51.114;5.654;2023-04-02T18:41:16;8.00;99.90
40434;DHT22;26146;51.114;5.654;2023-04-02T18:45:33;7.90;99.90
40434;DHT22;26146;51.114;5.654;2023-04-02T18:49:44;7.60;99.90
40434;DHT22;26146;51.114;5.654;2023-04-02T18:53:52;7.40;99.90
40434;DHT22;26146;51.114;5.654;2023-04-02T18:58:19;7.50;99.90
40434;DHT22;26146;51.114;5.654;2023-04-02T19:06:38;7.70;99.90
40434;DHT22;26146;51.114;5.654;2023-04-02T19:10:44;7.70;99.90
40434;DHT22;26146;51.114;5.654;2023-04-02T19:14:47;7.70;99.90
40434;DHT22;26146;51.114;5.654;2023-04-02T19:32:21;8.00;99.90
40434;DHT22;26146;51.114;5.654;2023-04-02T19:36:44;8.00;99.90
40434;DHT22;26146;51.114;5.654;2023-04-02T19:44:59;7.60;99.90
40434;DHT22;26146;51.114;5.654;2023-04-02T19:49:13;7.40;99.90
40434;DHT22;26146;51.114;5.654;2023-04-02T19:53:17;7.20;99.90
40434;DHT22;26146;51.114;5.654;2023-04-02T19:57:18;7.20;99.90
40434;DHT22;26146;51.114;5.654;2023-04-02T20:01:19;6.90;99.90
40434;DHT22;26146;51.114;5.654;2023-04-02T20:05:20;6.80;99.90
40434;DHT22;26146;51.114;5.654;2023-04-02T20:09:26;6.80;99.90
40434;DHT22;26146;51.114;5.654;2023-04-02T20:13:30;6.70;99.90
40434;DHT22;26146;51.114;5.654;2023-04-02T20:17:31;6.60;99.90
40434;DHT22;26146;51.114;5.654;2023-04-02T20:21:32;6.40;99.90
40434;DHT22;26146;51.114;5.654;2023-04-02T20:25:37;6.30;99.90
40434;DHT22;26146;51.114;5.654;2023-04-02T20:29:43;6.20;99.90
40434;DHT22;26146;51.114;5.654;2023-04-02T20:33:44;6.20;99.90
40434;DHT22;26146;51.114;5.654;2023-04-02T20:37:46;6.20;99.90
40434;DHT22;26146;51.114;5.654;2023-04-02T20:41:47;6.40;99.90
40434;DHT22;26146;51.114;5.654;2023-04-02T20:49:55;6.30;99.90
40434;DHT22;26146;51.114;5.654;2023-04-02T20:53:57;6.40;99.90
40434;DHT22;26146;51.114;5.654;2023-04-02T20:57:58;6.30;99.90
40434;DHT22;26146;51.114;5.654;2023-04-02T21:01:59;6.20;99.90
40434;DHT22;26146;51.114;5.654;2023-04-02T21:06:00;6.20;99.90
40434;DHT22;26146;51.114;5.654;2023-04-02T21:10:01;6.20;99.90
40434;DHT22;26146;51.114;5.654;2023-04-02T21:14:02;6.20;99.90
40434;DHT22;26146;51.114;5.654;2023-04-02T21:18:04;6.20;99.90
40434;DHT22;26146;51.114;5.654;2023-04-02T21:22:04;6.10;99.90
40434;DHT22;26146;51.114;5.654;2023-04-02T21:26:06;5.90;99.90
40434;DHT22;26146;51.114;5.654;2023-04-02T21:30:07;5.80;99.90
40434;DHT22;26146;51.114;5.654;2023-04-02T21:34:12;5.70;99.90
40434;DHT22;26146;51.114;5.654;2023-04-02T21:38:16;5.70;99.90
40434;DHT22;26146;51.114;5.654;2023-04-02T21:42:17;5.80;99.90
40434;DHT22;26146;51.114;5.654;2023-04-02T21:46:22;5.70;99.90
40434;DHT22;26146;51.114;5.654;2023-04-02T21:50:24;5.60;99.90
40434;DHT22;26146;51.114;5.654;2023-04-02T21:54:25;5.50;99.90
40434;DHT22;26146;51.114;5.654;2023-04-02T21:58:26;5.40;99.90
40434;DHT22;26146;51.114;5.654;2023-04-02T22:02:27;5.30;99.90
40434;DHT22;26146;51.114;5.654;2023-04-02T22:06:30;5.40;99.90
40434;DHT22;26146;51.114;5.654;2023-04-02T22:10:34;5.30;99.90
40434;DHT22;26146;51.114;5.654;2023-04-02T22:14:35;5.20;99.90
40434;DHT22;26146;51.114;5.654;2023-04-02T22:18:38;5.30;99.90
40434;DHT22;26146;51.114;5.654;2023-04-02T22:22:42;5.30;99.90
40434;DHT22;26146;51.114;5.654;2023-04-02T22:26:44;5.40;99.90
40434;DHT22;26146;51.114;5.654;2023-04-02T22:30:47;5.30;99.90
40434;DHT22;26146;51.114;5.654;2023-04-02T22:34:48;5.40;99.90
40434;DHT22;26146;51.114;5.654;2023-04-02T22:38:52;5.20;99.90
40434;DHT22;26146;51.114;5.654;2023-04-02T22:42:53;5.10;99.90
40434;DHT22;26146;51.114;5.654;2023-04-02T22:46:56;5.00;99.90
40434;DHT22;26146;51.114;5.654;2023-04-02T22:50:57;5.10;99.90
40434;DHT22;26146;51.114;5.654;2023-04-02T22:54:58;5.00;99.90
40434;DHT22;26146;51.114;5.654;2023-04-02T22:59:01;4.70;99.90
40434;DHT22;26146;51.114;5.654;2023-04-02T23:03:03;4.60;99.90
40434;DHT22;26146;51.114;5.654;2023-04-02T23:07:04;4.60;99.90
40434;DHT22;26146;51.114;5.654;2023-04-02T23:11:10;4.50;99.90
40434;DHT22;26146;51.114;5.654;2023-04-02T23:15:13;4.50;99.90
40434;DHT22;26146;51.114;5.654;2023-04-02T23:19:15;4.50;99.90
40434;DHT22;26146;51.114;5.654;2023-04-02T23:23:16;4.70;99.90
40434;DHT22;26146;51.114;5.654;2023-04-02T23:27:17;4.80;99.90
40434;DHT22;26146;51.114;5.654;2023-04-02T23:31:20;4.70;99.90
40434;DHT22;26146;51.114;5.654;2023-04-02T23:35:21;4.50;99.90
40434;DHT22;26146;51.114;5.654;2023-04-02T23:39:22;4.60;99.90
40434;DHT22;26146;51.114;5.654;2023-04-02T23:43:23;4.40;99.90
40434;DHT22;26146;51.114;5.654;2023-04-02T23:47:26;4.30;99.90
40434;DHT22;26146;51.114;5.654;2023-04-02T23:51:29;4.20;99.90
40434;DHT22;26146;51.114;5.654;2023-04-02T23:55:30;4.30;99.90
40434;DHT22;26146;51.114;5.654;2023-04-02T23:59:31;4.50;99.90
